createdAt,value
2018-06-24T08:34:40.678Z,3.47
2018-06-24T08:39:44.532Z,3.83
2018-06-24T08:44:48.518Z,3.50
2018-06-24T08:49:52.503Z,3.33
2018-06-24T08:54:56.495Z,3.67
2018-06-24T09:00:00.518Z,3.93
2018-06-24T09:05:04.536Z,3.13
2018-06-24T09:10:08.528Z,2.60
2018-06-24T09:15:12.314Z,2.63
2018-06-24T09:20:16.124Z,2.80
2018-06-24T09:25:20.090Z,2.50
2018-06-24T09:30:24.095Z,2.97
2018-06-24T09:35:28.120Z,3.47
2018-06-24T09:40:32.119Z,3.70
2018-06-24T09:45:36.227Z,3.20
2018-06-24T09:50:40.230Z,2.40
2018-06-24T09:55:44.232Z,2.93
2018-06-24T10:00:48.214Z,2.30
2018-06-24T10:05:52.204Z,2.73
2018-06-24T10:10:56.190Z,2.60
2018-06-24T10:16:00.178Z,2.43
2018-06-24T10:21:04.950Z,3.60
2018-06-24T10:26:08.932Z,2.70
2018-06-24T10:31:12.930Z,2.40
2018-06-24T10:36:16.668Z,3.07
2018-06-24T10:41:21.522Z,2.50
2018-06-24T10:46:25.488Z,2.30
2018-06-24T10:51:29.475Z,2.10
2018-06-24T10:56:33.448Z,1.77
2018-06-24T11:01:37.468Z,2.50
2018-06-24T11:06:41.434Z,2.10
2018-06-24T11:11:45.414Z,2.30
2018-06-24T11:16:49.940Z,2.20
2018-06-24T11:21:53.868Z,2.27
2018-06-24T11:26:57.579Z,2.17
2018-06-24T11:32:01.463Z,2.13
2018-06-24T11:37:05.702Z,1.90
2018-06-24T11:42:09.651Z,2.00
2018-06-24T11:47:13.640Z,2.43
2018-06-24T11:52:17.350Z,2.00
2018-06-24T11:57:21.186Z,1.87
2018-06-24T12:02:25.156Z,2.30
2018-06-24T12:07:29.374Z,2.23
2018-06-24T12:12:33.782Z,2.37
2018-06-24T12:17:37.788Z,2.13
2018-06-24T12:22:41.530Z,2.40
2018-06-24T12:27:45.384Z,1.90
2018-06-24T12:32:49.368Z,2.17
2018-06-24T12:37:53.115Z,1.40
2018-06-24T12:42:57.010Z,1.83
2018-06-24T12:48:01.959Z,2.03
2018-06-24T12:53:05.672Z,2.27
2018-06-24T12:58:09.547Z,2.30
2018-06-24T13:03:13.528Z,2.37
2018-06-24T13:08:17.220Z,2.00
2018-06-24T13:13:21.072Z,2.17
2018-06-24T13:18:25.080Z,1.90
2018-06-24T13:23:29.046Z,1.90
2018-06-24T13:28:33.015Z,1.47
2018-06-24T13:33:36.963Z,2.20
2018-06-24T13:38:41.062Z,1.73
2018-06-24T13:43:45.054Z,1.60
2018-06-24T13:48:49.056Z,1.80
2018-06-24T13:53:53.040Z,1.70
2018-06-24T13:58:57.034Z,1.60
2018-06-24T14:04:01.056Z,2.13
2018-06-24T14:09:07.355Z,2.00
2018-06-24T14:14:11.266Z,2.40
2018-06-24T14:19:15.251Z,2.37
2018-06-24T14:24:19.206Z,2.10
2018-06-24T14:29:23.206Z,2.67
2018-06-24T14:34:27.237Z,2.20
2018-06-24T14:39:31.239Z,2.10
2018-06-24T14:44:35.239Z,1.90
2018-06-24T14:49:39.260Z,2.33
2018-06-24T14:54:43.244Z,2.00
2018-06-24T14:59:47.266Z,2.20
2018-06-24T15:04:51.259Z,1.87
2018-06-24T15:09:55.282Z,2.50
2018-06-24T15:14:59.045Z,1.93
2018-06-24T15:20:02.927Z,1.93
2018-06-24T15:25:06.672Z,1.77
2018-06-24T15:30:10.579Z,2.67
2018-06-24T15:35:14.568Z,2.80
2018-06-24T15:40:18.539Z,2.57
2018-06-24T15:45:22.547Z,2.60
2018-06-24T15:50:26.307Z,2.50
2018-06-24T15:55:30.160Z,2.27
2018-06-24T16:00:34.135Z,1.90
2018-06-24T16:05:38.109Z,1.67
2018-06-24T16:10:42.086Z,2.00
2018-06-24T16:15:46.064Z,1.60
2018-06-24T16:20:50.130Z,2.10
2018-06-24T16:25:54.019Z,2.17
2018-06-24T16:30:58.027Z,3.17
2018-06-24T16:36:02.023Z,2.53
2018-06-24T16:41:06.244Z,2.80
2018-06-24T16:46:10.215Z,2.13
2018-06-24T16:51:14.195Z,2.10
2018-06-24T16:56:18.179Z,1.90
2018-06-24T17:01:22.140Z,2.40
2018-06-24T17:06:26.334Z,2.33
2018-06-24T17:11:30.335Z,2.20
2018-06-24T17:16:34.967Z,2.43
2018-06-24T17:21:38.996Z,2.40
2018-06-24T17:26:42.996Z,2.80
2018-06-24T17:31:46.991Z,2.60
2018-06-24T17:36:50.736Z,3.07
2018-06-24T17:41:54.671Z,2.50
2018-06-24T17:46:58.676Z,2.50
2018-06-24T17:52:02.679Z,2.17
2018-06-24T17:57:06.671Z,2.90
2018-06-24T18:02:10.700Z,2.70
2018-06-24T18:07:14.699Z,2.07
2018-06-24T18:12:18.834Z,2.60
2018-06-24T18:17:22.800Z,2.57
2018-06-24T18:22:26.851Z,2.85
2018-06-24T18:27:30.804Z,2.17
2018-06-24T18:32:34.763Z,2.77
2018-06-24T18:37:38.776Z,2.43
2018-06-24T18:42:42.804Z,2.80
2018-06-24T18:47:46.791Z,2.50
2018-06-24T18:52:50.799Z,2.73
2018-06-24T18:57:54.574Z,3.80
2018-06-24T19:02:58.529Z,3.70
2018-06-24T19:08:02.464Z,3.07
2018-06-24T19:13:06.487Z,2.83
2018-06-24T19:18:10.266Z,2.00
2018-06-24T19:23:14.143Z,2.37
2018-06-24T19:28:18.131Z,2.23
2018-06-24T19:33:22.123Z,2.93
2018-06-24T19:38:26.131Z,2.67
2018-06-24T19:43:30.127Z,3.33
2018-06-24T19:48:34.129Z,3.70
2018-06-24T19:53:38.125Z,3.47
2018-06-24T19:58:42.135Z,3.30
2018-06-24T20:03:46.524Z,2.90
2018-06-24T20:08:50.532Z,2.83
2018-06-24T20:13:54.539Z,2.63
2018-06-24T20:18:58.589Z,2.40
2018-06-24T20:24:02.603Z,2.70
2018-06-24T20:29:06.636Z,2.60
2018-06-24T20:34:10.667Z,2.27
2018-06-24T20:39:14.692Z,2.47
2018-06-24T20:44:18.871Z,2.73
2018-06-24T20:49:22.852Z,4.90
2018-06-24T20:54:26.825Z,3.20
2018-06-24T20:59:30.806Z,2.60
2018-06-24T21:04:34.846Z,2.00
2018-06-24T21:09:38.613Z,1.90
2018-06-24T21:14:42.459Z,1.70
2018-06-24T21:19:46.461Z,1.53
2018-06-24T21:24:51.211Z,1.70
2018-06-24T21:29:55.217Z,1.80
2018-06-24T21:34:59.217Z,2.13
2018-06-24T21:40:02.971Z,3.07
2018-06-24T21:45:07.165Z,3.10
2018-06-24T21:50:11.155Z,2.90
2018-06-24T21:55:15.151Z,2.60
2018-06-24T22:00:19.155Z,2.40
2018-06-24T22:05:23.157Z,1.83
2018-06-24T22:10:26.934Z,2.20
2018-06-24T22:15:30.806Z,2.27
2018-06-24T22:20:34.575Z,2.20
2018-06-24T22:25:38.450Z,2.40
2018-06-24T22:30:42.177Z,3.10
2018-06-24T22:35:45.955Z,2.70
2018-06-24T22:40:49.827Z,3.20
2018-06-24T22:45:54.883Z,3.93
2018-06-24T22:50:58.826Z,3.43
2018-06-24T22:56:03.070Z,3.90
2018-06-24T23:01:07.148Z,3.57
2018-06-24T23:06:11.055Z,3.70
2018-06-24T23:11:16.878Z,3.60
2018-06-24T23:16:20.767Z,3.27
2018-06-24T23:21:24.734Z,3.33
2018-06-24T23:26:28.734Z,3.03
2018-06-24T23:31:32.739Z,3.27
2018-06-24T23:36:36.724Z,3.00
2018-06-24T23:41:40.714Z,2.93
2018-06-24T23:46:44.766Z,3.13
2018-06-24T23:51:48.759Z,3.20
2018-06-24T23:56:53.383Z,2.83
